x

Boston 16 Nm East Of Boston, Ma (44013) Wave Buoy

12:50 - Tue 17th Jan 2017 All times are EST. -5 hours from GMT.

  • Sig Wave height 2.0ft
  • Swell Direction
  • Peak Period 4s
  • Average Period 3s
  • Wind
    16mph, 18mph gusts
  • Sea Temp 45°f
  • Luft Temp 42°f
  • Sea Pressure 1021.7mb
  • Boston 16 Nm East Of Boston, Ma
  • Boston 16 Nm East Of Boston, Ma

More Historic Weather Station data

Upgrade to MSW Pro to gain access to the past 30 days of data for over 8000 Wavebouys and Weather Stations around the globe.

Join Pro

Comparision Forecast

View Surf forecast
   
Di 01/17 12:50 2ft 4s 3s 16 18 mph 1021.7mb 45f 42f
11:50 1.3ft 3s 3s 18 20 mph 1022.4mb 45f 42f
10:50 1ft 2s 3s 9 11 mph 1023.7mb 45f 42f
9:50 1ft 2s 3s 9 11 mph 1024.1mb 45f 39f
7:50 1ft 3s 3s 16 18 mph 1023mb 45f 39f
6:50 1ft 3s 3s 13 16 mph 1022.5mb 45f 38f
5:50 1.3ft 3s 3s 13 16 mph 1022.2mb 45f 39f
4:50 1.3ft 3s 3s 18 20 mph 1021.5mb 45f 39f
3:50 1.6ft 3s 3s 18 20 mph 1021.5mb 45f 38f
2:50 2ft 3s 3s 18 20 mph 1021.4mb 45f 38f
1:50 2ft 3s 3s 18 20 mph 1021.3mb 45f 38f
12:50 2.5ft 4s 3s 20 22 mph 1021.5mb 45f 38f
Mo 01/16 11:50 2.5ft 4s 3s 22 27 mph 1021.5mb 45f 39f
10:50 2.5ft 4s 3s 22 27 mph 1022.3mb 45f 39f
9:50 2.5ft 3s 3s 22 27 mph 1022.9mb 45f 39f
8:50 2ft 3s 3s 20 22 mph 1023.3mb 45f 39f
7:50 1.6ft 3s 3s 22 27 mph 1023.6mb 45f 40f
6:50 1.6ft 3s 3s 20 22 mph 1023.9mb 44f 40f
5:50 1.6ft 3s 3s 18 22 mph 1024.1mb 45f 41f
4:50 2ft 3s 3s 18 20 mph 1024.1mb 45f 41f
3:50 2ft 3s 3s 16 20 mph 1024.3mb 45f 42f
2:50 2ft 3s 3s 20 22 mph 1024.3mb 45f 41f
1:50 2ft 3s 3s 16 20 mph 1024.9mb 45f 40f
12:50 2ft 3s 3s 18 22 mph 1025.6mb 45f 38f
11:50 1.6ft 3s 3s 18 20 mph 1027.1mb 45f 37f
10:50 1.3ft 5s 4s 16 20 mph 1028.7mb 45f 35f
9:50 1.3ft 5s 5s 11 13 mph 1029.9mb 44f 34f
8:50 1.3ft 5s 5s 9 11 mph 1029.9mb 44f 34f
7:50 1.6ft 5s 5s 7 9 mph 1030.3mb 44f 33f
6:50 1.3ft 5s 5s 4 7 mph 1030.1mb 44f 32f
5:50 1.3ft 4s 4s 2 4 mph 1030.1mb 44f 31f
4:50 1.3ft 4s 4s 4 7 mph 1029.9mb 44f 32f
3:50 1.3ft 4s 3s 4 7 mph 1029.8mb 45f 32f
2:50 1.3ft 10s 3s 7 9 mph 1029.7mb 45f 32f
1:50 1.3ft 4s 4s 11 13 mph 1029.8mb 45f 33f
12:50 1.6ft 5s 4s 9 11 mph 1029mb 45f 33f
So 01/15 11:50 2ft 5s 4s 9 11 mph 1028.9mb 45f 34f
10:50 2ft 5s 4s 11 13 mph 1029.1mb 45f 34f
9:50 2ft 4s 4s 11 13 mph 1029.1mb 44f 34f
8:50 2ft 4s 3s 13 16 mph 1028.6mb 45f 34f
7:50 1.6ft 3s 3s 18 20 mph 1028.2mb 45f 34f
6:50 1.6ft 3s 3s 16 20 mph 1027.5mb 45f 35f
5:50 1.6ft 3s 3s 13 18 mph 1026.9mb 45f 36f
4:50 1.6ft 3s 3s 16 18 mph 1026.2mb 45f 36f
3:50 1.6ft 3s 3s 16 18 mph 1025.4mb 45f 36f
2:50 2ft 3s 3s 16 20 mph 1024.5mb 45f 36f
1:50 2.5ft 3s 4s 18 22 mph 1024.1mb 45f 35f
12:50 2.5ft 4s 3s 20 25 mph 1023.8mb 45f 34f
11:50 2.5ft 3s 3s 20 25 mph 1024.4mb 45f 33f
10:50 2.5ft 3s 3s 22 27 mph 1024.7mb 45f 32f
9:50 2.5ft 3s 3s 25 31 mph 1025.2mb 45f 32f
8:50 2ft 3s 3s 22 25 mph 1024.9mb 45f 32f
7:50 2ft 3s 3s 22 27 mph 1024.1mb 45f 33f
6:50 2ft 3s 3s 20 25 mph 1023.5mb 45f 32f
5:50 2ft 3s 3s 18 22 mph 1022.9mb 45f 32f
4:50 2ft 3s 3s 20 25 mph 1022.3mb 45f 33f
3:50 2ft 3s 3s 20 25 mph 1022.3mb 45f 34f
2:50 2ft 3s 3s 16 20 mph 1022.9mb 45f 33f
1:50 2ft 3s 3s 18 22 mph 1023mb 45f 33f
12:50 1.6ft 3s 3s 20 25 mph 1023.2mb 45f 32f
Sa 01/14 11:50 1.6ft 12s 3s 16 20 mph 1024.4mb 45f 32f
10:50 2ft 11s 3s 16 20 mph 1025.3mb 45f 32f
9:50 2ft 12s 3s 18 22 mph 1026.5mb 45f 31f
8:50 2ft 11s 4s 18 22 mph 1027.5mb 45f 31f
7:50 2ft 10s 4s 18 25 mph 1028.3mb 45f 31f
6:50 2ft 11s 4s 16 20 mph 1029.3mb 45f 31f
5:50 1.6ft 11s 4s 16 18 mph 1030mb 45f 31f
4:50 1.6ft 11s 4s 16 18 mph 1030.7mb 45f 31f
3:50 1.3ft 11s 6s 11 16 mph 1031.8mb 45f 28f
2:50 1.6ft 11s 6s 4 9 mph 1032.6mb 45f 27f
1:50 1.6ft 11s 6s 2 7 mph 1033.6mb 45f 28f
12:50 1.6ft 11s 5s 4 9 mph 1034.5mb 45f 26f
11:50 1.6ft 12s 4s 7 11 mph 1036.2mb 45f 25f
10:50 2ft 11s 4s 9 16 mph 1037.8mb 45f 24f
9:50 2.5ft 12s 4s 9 18 mph 1038.9mb 45f 22f
8:50 2.5ft 11s 4s 16 20 mph 1039.3mb 45f 22f
7:50 3ft 4s 4s 18 22 mph 1039.3mb 45f 22f
6:50 3ft 4s 4s 18 22 mph 1039.3mb 45f 22f
5:50 3ft 4s 4s 18 22 mph 1039.2mb 45f 23f
4:50 3.5ft 4s 4s 20 25 mph 1039mb 45f 23f
3:50 3.5ft 4s 4s 25 31 mph 1038.6mb 45f 24f
2:50 3.5ft 11s 4s 20 27 mph 1038.8mb 45f 25f
1:50 4ft 4s 4s 25 31 mph 1038.3mb 45f 26f
12:50 4.5ft 6s 4s 25 31 mph 1037.7mb 45f 27f
Fr 01/13 11:50 5ft 6s 4s 25 29 mph 1037.5mb 45f 28f
10:50 5ft 5s 4s 27 36 mph 1036.8mb 45f 29f
9:50 4.5ft 6s 4s 27 31 mph 1036.1mb 45f 31f
8:50 4.5ft 4s 4s 25 27 mph 1035.1mb 45f 33f
7:50 3.5ft 4s 4s 22 27 mph 1034.1mb 45f 36f